Time;durP1;ratioP1;P1;durP2;ratioP2;P2;SDS_P1;SDS_P2;PMS_P1;PMS_P2;Temp;Humidity;BMP_temperature;BMP_pressure;BME280_temperature;BME280_humidity;BME280_pressure;Samples;Min_cycle;Max_cycle;Signal;HPM_P1;HPM_P2
2022/05/18 00:02:10;;;;;;;23.05;10.08;;;;;;;9.75;43.71;99237.77;1743237;82;21017;-42
2022/05/18 00:04:37;;;;;;;19.12;9.68;;;;;;;9.70;43.82;99244.03;1743376;82;20946;-43
2022/05/18 00:07:05;;;;;;;21.75;10.75;;;;;;;9.67;44.12;99249.59;1743299;81;20910;-42
2022/05/18 00:09:32;;;;;;;19.85;9.30;;;;;;;9.63;44.29;99254.16;1743320;82;21026;-42
2022/05/18 00:11:58;;;;;;;23.80;9.78;;;;;;;9.57;44.45;99251.52;1743273;82;21277;-42
2022/05/18 00:14:26;;;;;;;17.62;8.85;;;;;;;9.52;44.77;99259.91;1743362;81;21013;-42
2022/05/18 00:16:53;;;;;;;22.90;9.33;;;;;;;9.48;44.89;99259.05;1743432;81;21320;-42
2022/05/18 00:19:20;;;;;;;23.15;9.20;;;;;;;9.43;45.01;99260.12;1743197;81;21569;-43
2022/05/18 00:21:47;;;;;;;25.48;10.08;;;;;;;9.35;45.02;99257.02;1743263;82;20982;-43
2022/05/18 00:24:14;;;;;;;19.92;10.18;;;;;;;9.29;45.36;99257.67;1738661;81;23152;-42
2022/05/18 00:26:41;;;;;;;30.85;13.00;;;;;;;9.25;45.46;99258.12;1743232;82;21827;-42
2022/05/18 00:29:09;;;;;;;32.67;13.98;;;;;;;9.20;45.67;99258.44;1743470;81;20969;-42
2022/05/18 00:31:36;;;;;;;26.37;13.13;;;;;;;9.09;45.91;99257.62;1756589;81;21029;-42
2022/05/18 00:34:04;;;;;;;34.10;13.95;;;;;;;9.03;46.22;99256.88;1756623;81;21020;-43
2022/05/18 00:36:31;;;;;;;27.07;12.85;;;;;;;8.96;46.73;99263.46;1756670;81;21238;-42
2022/05/18 00:38:58;;;;;;;22.42;11.70;;;;;;;8.88;47.08;99258.47;1756553;81;20973;-42
2022/05/18 00:41:27;;;;;;;23.30;12.05;;;;;;;8.84;47.52;99264.36;1756559;81;20949;-42
2022/05/18 00:43:54;;;;;;;21.15;9.98;;;;;;;8.77;47.87;99269.58;1756772;81;20946;-43
2022/05/18 00:46:23;;;;;;;20.85;9.35;;;;;;;8.73;48.17;99267.36;1756914;81;21072;-42
2022/05/18 00:48:51;;;;;;;21.33;8.65;;;;;;;8.67;48.58;99266.83;1756521;81;23229;-42
2022/05/18 00:51:35;;;;;;;25.62;8.08;;;;;;;8.60;48.87;99273.42;1756700;81;20969;-42
2022/05/18 00:54:14;;;;;;;18.02;6.37;;;;;;;8.53;49.16;99273.23;1756554;81;21649;-42
2022/05/18 00:56:51;;;;;;;13.83;5.72;;;;;;;8.45;49.64;99272.05;1757000;81;20984;-42
2022/05/18 00:59:26;;;;;;;10.58;4.90;;;;;;;8.39;49.93;99269.38;1754394;81;21029;-42
2022/05/18 01:01:54;;;;;;;15.03;4.72;;;;;;;8.35;50.06;99272.00;1756831;81;21234;-42
2022/05/18 01:04:23;;;;;;;8.65;3.52;;;;;;;8.33;50.57;99269.44;1756673;81;21562;-42
2022/05/18 01:07:01;;;;;;;11.57;3.67;;;;;;;8.25;50.75;99270.56;1757147;81;20957;-42
2022/05/18 01:09:41;;;;;;;7.45;3.30;;;;;;;8.19;51.08;99280.59;1756871;81;20984;-43
2022/05/18 01:12:12;;;;;;;7.70;2.90;;;;;;;8.12;51.42;99271.77;1756979;81;22251;-43
2022/05/18 01:14:44;;;;;;;9.38;2.67;;;;;;;8.01;51.56;99280.12;1757283;81;21273;-43
2022/05/18 01:17:14;;;;;;;7.50;2.80;;;;;;;7.97;51.80;99277.11;1757157;81;21500;-42
2022/05/18 01:19:47;;;;;;;11.78;3.27;;;;;;;7.93;52.22;99282.42;1757022;81;21008;-42
2022/05/18 01:22:28;;;;;;;9.03;3.30;;;;;;;7.89;52.38;99279.40;1755798;81;20956;-42
2022/05/18 01:25:29;;;;;;;11.78;3.55;;;;;;;7.82;52.79;99282.67;1757055;81;21065;-42
2022/05/18 01:27:58;;;;;;;11.75;3.22;;;;;;;7.74;53.08;99285.75;1756957;81;21166;-42
2022/05/18 01:30:26;;;;;;;7.35;3.40;;;;;;;7.67;53.25;99278.00;1756671;81;20981;-42
2022/05/18 01:32:56;;;;;;;11.20;3.70;;;;;;;7.67;53.41;99276.64;1757068;81;20929;-42
2022/05/18 01:35:27;;;;;;;9.23;3.27;;;;;;;7.68;53.56;99286.31;1756814;81;20949;-42
2022/05/18 01:37:57;;;;;;;11.78;4.22;;;;;;;7.67;53.67;99286.88;1756685;81;21037;-42
2022/05/18 01:41:10;;;;;;;10.20;4.25;;;;;;;7.67;53.75;99286.88;1756712;81;21097;-42
2022/05/18 01:45:15;;;;;;;11.03;4.55;;;;;;;7.67;54.07;99294.18;1878221;75;22657;-42
2022/05/18 01:47:42;;;;;;;14.07;4.10;;;;;;;7.58;54.33;99290.84;1832362;76;20955;-42
2022/05/18 01:50:14;;;;;;;14.25;4.28;;;;;;;7.55;54.42;99296.92;1842222;76;21223;-42
2022/05/18 01:52:41;;;;;;;7.42;3.50;;;;;;;7.53;54.63;99297.25;1845099;76;20964;-42
2022/05/18 01:55:08;;;;;;;12.07;3.45;;;;;;;7.51;54.72;99302.75;1837278;76;21040;-43
2022/05/18 01:57:35;;;;;;;8.08;3.40;;;;;;;7.47;54.95;99299.95;1829792;76;21035;-42
2022/05/18 02:00:06;;;;;;;9.13;3.35;;;;;;;7.41;55.41;99307.48;1841272;76;21497;-42
2022/05/18 02:02:35;;;;;;;6.70;2.60;;;;;;;7.34;55.63;99305.94;1837211;76;21131;-42
2022/05/18 02:05:02;;;;;;;8.13;2.95;;;;;;;7.29;56.02;99308.86;1841045;76;20916;-42
2022/05/18 02:07:30;;;;;;;10.00;3.05;;;;;;;7.26;56.15;99314.16;1843216;76;21497;-42
2022/05/18 02:09:58;;;;;;;10.80;3.20;;;;;;;7.22;56.47;99308.63;1837243;76;20996;-42
2022/05/18 02:12:25;;;;;;;8.28;2.77;;;;;;;7.18;56.64;99311.78;1837289;76;21075;-42
2022/05/18 02:14:52;;;;;;;5.92;2.60;;;;;;;7.16;56.86;99312.70;1841340;76;21569;-42
2022/05/18 02:17:19;;;;;;;7.55;2.45;;;;;;;7.13;57.03;99317.96;1844937;76;21507;-42
2022/05/18 02:19:46;;;;;;;5.00;2.42;;;;;;;7.08;57.24;99317.63;1841724;76;20915;-42
2022/05/18 02:22:13;;;;;;;7.08;2.62;;;;;;;7.04;57.40;99316.73;1835475;76;20996;-42
2022/05/18 02:24:40;;;;;;;7.15;2.20;;;;;;;7.03;57.64;99316.50;1849536;77;21055;-42
2022/05/18 02:27:06;;;;;;;6.28;2.30;;;;;;;7.01;57.84;99310.67;1839345;76;21214;-42
2022/05/18 02:29:35;;;;;;;9.05;2.37;;;;;;;6.97;57.99;99309.78;1836625;76;21552;-42
2022/05/18 02:32:02;;;;;;;6.95;2.30;;;;;;;6.94;58.18;99315.83;1845109;76;20997;-43
2022/05/18 02:34:29;;;;;;;6.55;2.22;;;;;;;6.90;58.60;99314.92;1843076;76;21008;-42
2022/05/18 02:36:56;;;;;;;6.55;2.08;;;;;;;6.86;58.70;99316.16;1835301;76;20956;-43
2022/05/18 02:39:23;;;;;;;5.50;1.70;;;;;;;6.84;58.93;99317.61;1824348;76;21122;-42
2022/05/18 02:41:50;;;;;;;5.15;1.95;;;;;;;6.81;59.16;99316.38;1837275;76;20940;-43
2022/05/18 02:44:18;;;;;;;5.20;1.70;;;;;;;6.80;59.25;99312.66;1842257;77;21672;-42
2022/05/18 02:46:45;;;;;;;3.33;1.72;;;;;;;6.80;59.41;99315.36;1851039;76;20933;-42
2022/05/18 02:49:15;;;;;;;3.42;1.92;;;;;;;6.79;59.45;99321.30;1843509;76;21042;-43
2022/05/18 02:51:42;;;;;;;5.70;1.40;;;;;;;6.82;59.67;99321.21;1838843;77;21221;-43
2022/05/18 02:56:55;;;;;;;5.03;2.02;;;;;;;6.87;60.06;99322.34;1836568;76;20988;-42
2022/05/18 02:59:22;;;;;;;3.77;1.60;;;;;;;6.89;60.11;99324.91;1840546;76;21062;-43
2022/05/18 03:01:48;;;;;;;4.67;1.50;;;;;;;6.90;60.12;99325.70;1844671;76;21024;-42
2022/05/18 03:04:15;;;;;;;6.90;1.30;;;;;;;6.94;60.11;99322.56;1834901;76;21112;-42
2022/05/18 03:06:42;;;;;;;3.37;1.40;;;;;;;6.99;59.93;99327.17;1832557;76;21052;-42
2022/05/18 03:09:10;;;;;;;3.15;1.32;;;;;;;7.08;59.97;99327.61;1839011;76;21080;-43
2022/05/18 03:11:36;;;;;;;8.00;2.30;;;;;;;7.14;59.93;99323.02;1828916;77;20912;-43
2022/05/18 03:14:03;;;;;;;5.28;1.37;;;;;;;7.13;59.94;99329.53;1841975;77;21074;-42
2022/05/18 03:16:30;;;;;;;2.65;1.40;;;;;;;7.14;60.02;99332.45;1832686;77;21078;-43
2022/05/18 03:18:57;;;;;;;5.42;1.40;;;;;;;7.19;60.23;99338.19;1834679;76;21940;-43
2022/05/18 03:24:10;;;;;;;5.03;2.27;;;;;;;7.23;60.47;99337.17;1832758;76;20976;-42
2022/05/18 03:26:38;;;;;;;6.35;2.02;;;;;;;7.22;60.63;99346.37;1836835;76;21102;-43
2022/05/18 03:29:05;;;;;;;7.72;2.50;;;;;;;7.26;60.69;99336.48;1841869;76;21218;-43
2022/05/18 03:31:32;;;;;;;6.35;2.05;;;;;;;7.23;61.01;99342.56;1841915;76;21094;-42
2022/05/18 03:33:59;;;;;;;8.68;2.75;;;;;;;7.22;61.06;99339.64;1836908;77;20986;-42
2022/05/18 03:36:26;;;;;;;7.12;2.42;;;;;;;7.26;61.11;99344.58;1841639;76;21516;-42
2022/05/18 03:38:54;;;;;;;3.27;1.80;;;;;;;7.32;61.11;99340.53;1843942;76;20923;-44
2022/05/18 03:41:21;;;;;;;4.33;1.90;;;;;;;7.43;61.15;99340.31;1830711;76;21221;-42
2022/05/18 03:43:48;;;;;;;3.90;2.10;;;;;;;7.57;60.94;99348.61;1840392;77;20976;-43
2022/05/18 03:46:15;;;;;;;7.40;2.17;;;;;;;7.71;60.72;99344.42;1840007;76;20959;-43
2022/05/18 03:48:43;;;;;;;8.33;2.70;;;;;;;7.82;60.85;99340.70;1831984;76;20983;-43
2022/05/18 03:51:13;;;;;;;6.85;2.50;;;;;;;7.90;60.65;99341.67;1852983;76;20992;-43
2022/05/18 03:53:40;;;;;;;5.72;2.40;;;;;;;7.99;60.40;99339.06;1833854;76;21210;-42
2022/05/18 03:56:08;;;;;;;4.85;2.20;;;;;;;8.07;60.34;99340.86;1844432;76;21855;-43
2022/05/18 03:58:36;;;;;;;9.18;2.50;;;;;;;8.11;60.21;99339.03;1837518;76;21496;-42
2022/05/18 04:01:08;;;;;;;4.22;2.25;;;;;;;8.14;60.28;99343.74;1837235;76;21478;-42
2022/05/18 04:03:32;;;;;;;4.92;1.85;;;;;;;8.15;60.26;99339.91;1848135;77;21048;-42
2022/05/18 04:06:00;;;;;;;5.17;2.65;;;;;;;8.18;60.11;99345.97;1840686;76;21121;-43
2022/05/18 04:08:27;;;;;;;4.37;2.60;;;;;;;8.20;60.13;99350.47;1853819;76;21044;-43
2022/05/18 04:10:55;;;;;;;9.40;2.77;;;;;;;8.24;60.00;99349.22;1833059;76;20940;-42
2022/05/18 04:13:24;;;;;;;7.42;3.40;;;;;;;8.27;60.16;99352.04;1833650;76;21059;-43
2022/05/18 04:15:52;;;;;;;;;;;;;;;8.29;60.04;99363.83;1844256;76;21053;-43
2022/05/18 04:18:18;;;;;;;8.28;3.40;;;;;;;8.28;60.10;99363.03;1831378;76;21119;-43
2022/05/18 04:20:47;;;;;;;7.58;3.10;;;;;;;8.20;60.27;99364.54;1842523;76;21601;-42
2022/05/18 04:23:13;;;;;;;6.47;2.83;;;;;;;8.21;60.38;99364.77;1834928;76;20943;-43
2022/05/18 04:25:41;;;;;;;7.28;3.20;;;;;;;8.22;60.45;99367.13;1836496;76;20927;-42
2022/05/18 04:28:12;;;;;;;7.37;3.52;;;;;;;8.35;60.57;99370.59;1833915;76;20995;-43
2022/05/18 04:30:38;;;;;;;7.05;3.90;;;;;;;8.44;60.22;99369.09;1840518;76;21212;-43
2022/05/18 04:33:05;;;;;;;8.13;4.60;;;;;;;8.47;60.05;99376.52;1836560;77;21555;-42
2022/05/18 04:35:32;;;;;;;11.25;4.33;;;;;;;8.49;60.14;99371.55;1833171;77;20983;-43
2022/05/18 04:37:59;;;;;;;7.75;4.10;;;;;;;8.49;60.08;99367.48;1846510;76;21348;-42
2022/05/18 04:40:26;;;;;;;8.18;4.37;;;;;;;8.50;60.02;99373.12;1846745;76;21570;-42
2022/05/18 04:42:52;;;;;;;5.62;3.65;;;;;;;8.57;60.25;99376.00;1844643;77;23097;-43
2022/05/18 04:45:21;;;;;;;5.80;3.40;;;;;;;8.60;60.03;99375.33;1847195;76;20914;-43
2022/05/18 04:47:49;;;;;;;6.28;3.50;;;;;;;8.61;59.95;99375.55;1838741;76;21464;-43
2022/05/18 04:50:16;;;;;;;10.53;3.92;;;;;;;8.55;60.04;99374.22;1846873;76;21020;-43
2022/05/18 04:52:42;;;;;;;6.55;3.95;;;;;;;8.49;60.37;99372.89;1844735;76;20972;-43
2022/05/18 04:55:11;;;;;;;8.90;3.90;;;;;;;8.45;60.53;99372.02;1837579;76;20908;-42
2022/05/18 04:57:39;;;;;;;7.65;3.58;;;;;;;8.45;60.80;99380.12;1840207;76;21471;-42
2022/05/18 05:00:09;;;;;;;11.75;4.28;;;;;;;8.52;61.05;99381.68;1829426;77;21529;-42
2022/05/18 05:02:37;;;;;;;8.63;4.85;;;;;;;8.54;61.05;99376.14;1837059;77;20948;-43
2022/05/18 05:05:09;;;;;;;9.95;5.17;;;;;;;8.54;60.96;99377.48;1841876;76;21103;-42
2022/05/18 05:07:36;;;;;;;11.63;6.12;;;;;;;8.54;61.05;99381.55;1854713;77;21149;-43
2022/05/18 05:10:04;;;;;;;12.50;6.17;;;;;;;8.52;61.46;99377.63;1852139;76;20912;-43
2022/05/18 05:12:31;;;;;;;14.75;6.28;;;;;;;8.44;61.80;99388.78;1849500;76;20941;-43
2022/05/18 05:14:58;;;;;;;16.25;5.87;;;;;;;8.36;62.00;99388.38;1844513;76;20990;-42
2022/05/18 05:17:25;;;;;;;10.85;6.17;;;;;;;8.33;62.36;99388.28;1844419;77;20996;-42
2022/05/18 05:19:54;;;;;;;15.95;6.40;;;;;;;8.35;62.70;99386.80;1839281;76;20995;-42
2022/05/18 05:22:20;;;;;;;12.70;6.15;;;;;;;8.35;62.45;99386.80;1841100;76;21685;-42
2022/05/18 05:24:47;;;;;;;9.63;5.17;;;;;;;8.37;63.44;99391.87;1836642;76;21042;-42
2022/05/18 05:27:13;;;;;;;8.58;4.55;;;;;;;8.36;64.18;99403.23;1838598;76;21075;-42
2022/05/18 05:29:40;;;;;;;8.63;4.70;;;;;;;8.36;64.70;99404.59;1856595;76;21024;-42
2022/05/18 05:32:09;;;;;;;10.28;4.42;;;;;;;8.37;64.86;99410.78;1851789;77;21240;-42
2022/05/18 05:34:37;;;;;;;8.33;3.52;;;;;;;8.46;64.75;99404.66;1841573;76;21746;-42
2022/05/18 05:37:04;;;;;;;8.15;3.52;;;;;;;8.55;65.01;99410.14;1835698;76;20908;-42
2022/05/18 05:39:32;;;;;;;7.72;3.60;;;;;;;8.56;65.28;99416.33;1841701;76;21046;-42
2022/05/18 05:41:59;;;;;;;5.78;3.22;;;;;;;8.55;65.03;99420.95;1844543;76;20993;-42
2022/05/18 05:44:26;;;;;;;6.03;3.08;;;;;;;8.54;65.63;99414.53;1841414;76;21230;-42
2022/05/18 05:46:53;;;;;;;5.90;2.55;;;;;;;8.48;65.96;99423.44;1848617;76;21028;-43
2022/05/18 05:49:20;;;;;;;3.90;2.40;;;;;;;8.46;66.39;99420.88;1852104;76;21197;-43
2022/05/18 05:51:47;;;;;;;3.40;2.20;;;;;;;8.49;66.57;99420.96;1836661;76;20932;-43
2022/05/18 05:54:13;;;;;;;4.65;2.12;;;;;;;8.53;66.39;99427.81;1832616;76;21081;-43
2022/05/18 05:56:42;;;;;;;5.95;2.58;;;;;;;8.51;66.31;99427.38;1827286;78;21539;-43
2022/05/18 05:59:09;;;;;;;5.33;2.20;;;;;;;8.45;66.91;99436.30;1812536;78;21515;-43
2022/05/18 06:01:36;;;;;;;5.47;2.00;;;;;;;8.42;67.43;99440.25;1809042;78;21070;-43
2022/05/18 06:04:07;;;;;;;6.95;2.58;;;;;;;8.47;67.56;99438.06;1824032;78;21583;-43
2022/05/18 06:06:37;;;;;;;7.30;2.80;;;;;;;8.53;67.65;99439.41;1817439;78;26788;-43
2022/05/18 06:09:03;;;;;;;;;;;;;;;8.53;67.82;99438.05;1816737;78;21239;-43
2022/05/18 06:11:29;;;;;;;5.45;2.45;;;;;;;8.47;68.18;99446.17;1813562;77;20153;-43
2022/05/18 06:13:56;;;;;;;4.90;2.00;;;;;;;8.34;68.64;99448.70;1814156;77;21059;-43
2022/05/18 06:16:23;;;;;;;3.87;2.30;;;;;;;8.38;69.01;99451.50;1819270;78;21098;-43
2022/05/18 06:18:50;;;;;;;4.53;2.45;;;;;;;8.43;69.30;99449.91;1807533;78;21115;-43
2022/05/18 06:21:17;;;;;;;4.10;2.20;;;;;;;8.49;69.36;99452.59;1806164;77;21989;-43
2022/05/18 06:23:44;;;;;;;5.20;2.37;;;;;;;8.51;69.59;99453.84;1819613;78;21060;-43
2022/05/18 06:26:11;;;;;;;2.90;1.95;;;;;;;8.56;69.77;99452.81;1809446;78;21003;-44
2022/05/18 06:28:40;;;;;;;3.70;1.95;;;;;;;8.58;69.65;99462.13;1812932;78;21040;-43
2022/05/18 06:31:07;;;;;;;6.28;2.35;;;;;;;8.63;69.92;99461.10;1795640;78;21005;-43
2022/05/18 06:33:37;;;;;;;2.83;1.65;;;;;;;8.73;69.73;99460.61;1810165;78;21282;-43
2022/05/18 06:36:04;;;;;;;2.98;1.77;;;;;;;8.82;69.49;99459.11;1789678;78;20921;-44
2022/05/18 06:38:32;;;;;;;4.45;1.90;;;;;;;8.83;69.64;99462.03;1801416;78;22527;-43
2022/05/18 06:43:46;;;;;;;3.25;1.65;;;;;;;8.81;69.96;99467.78;1795832;77;21016;-43
2022/05/18 06:46:13;;;;;;;3.37;1.60;;;;;;;8.83;69.91;99462.83;1807735;78;23224;-43
2022/05/18 06:48:41;;;;;;;3.05;1.50;;;;;;;8.93;70.18;99465.03;1812885;78;21051;-43
2022/05/18 06:51:08;;;;;;;3.83;1.47;;;;;;;9.00;70.32;99457.12;1812548;78;21513;-43
2022/05/18 06:53:35;;;;;;;3.58;2.00;;;;;;;9.05;70.24;99460.90;1818219;78;21494;-43
2022/05/18 06:56:02;;;;;;;2.77;1.70;;;;;;;9.11;70.62;99464.93;1802601;78;21534;-43
2022/05/18 06:58:29;;;;;;;2.75;1.52;;;;;;;9.11;70.40;99465.50;1825330;77;21127;-44
2022/05/18 07:00:56;;;;;;;4.50;1.87;;;;;;;9.15;70.57;99470.42;1810673;78;20999;-43
2022/05/18 07:03:22;;;;;;;2.47;1.35;;;;;;;9.22;70.00;99469.83;1789777;78;21012;-43
2022/05/18 07:05:49;;;;;;;2.70;1.60;;;;;;;9.21;70.04;99470.40;1811057;78;21037;-43
2022/05/18 07:08:16;;;;;;;2.35;1.45;;;;;;;9.13;70.23;99469.44;1805385;78;21032;-43
2022/05/18 07:10:42;;;;;;;5.30;1.70;;;;;;;9.08;70.38;99472.40;1810516;78;22166;-43
2022/05/18 07:13:16;;;;;;;1.45;1.30;;;;;;;9.07;70.64;99466.77;1825282;78;20945;-43
2022/05/18 07:15:40;;;;;;;3.58;1.67;;;;;;;9.09;70.52;99467.21;1824880;78;21051;-43
2022/05/18 07:18:07;;;;;;;2.12;1.40;;;;;;;9.11;70.53;99471.69;1825573;78;21099;-43
2022/05/18 07:20:34;;;;;;;2.77;1.50;;;;;;;9.16;70.99;99478.20;1827295;78;20992;-44
2022/05/18 07:23:03;;;;;;;3.25;2.00;;;;;;;9.17;70.32;99478.99;1806168;78;21219;-43
2022/05/18 07:25:30;;;;;;;5.12;1.77;;;;;;;9.05;70.23;99481.18;1809609;77;21522;-44
2022/05/18 07:27:57;;;;;;;4.30;1.57;;;;;;;9.03;70.51;99479.41;1825342;78;21035;-43
2022/05/18 07:30:23;;;;;;;4.83;2.05;;;;;;;9.11;70.89;99478.45;1819917;78;21664;-43
2022/05/18 07:32:50;;;;;;;3.58;2.15;;;;;;;9.22;70.91;99484.71;1826411;78;21032;-43
2022/05/18 07:35:18;;;;;;;6.60;3.00;;;;;;;9.28;71.26;99487.39;1804472;78;21224;-43
2022/05/18 07:37:44;;;;;;;6.53;3.37;;;;;;;9.32;71.27;99485.55;1789696;78;21492;-43
2022/05/18 07:40:12;;;;;;;4.78;2.52;;;;;;;9.39;70.96;99492.52;1789728;78;21019;-43
2022/05/18 07:42:38;;;;;;;5.97;2.90;;;;;;;9.42;70.63;99503.42;1812666;77;20959;-43
2022/05/18 07:45:08;;;;;;;9.03;3.37;;;;;;;9.44;70.62;99496.32;1826538;78;21716;-43
2022/05/18 07:47:35;;;;;;;6.03;3.33;;;;;;;9.39;70.74;99500.04;1808473;78;21209;-44
2022/05/18 07:50:01;;;;;;;6.33;3.58;;;;;;;9.37;71.00;99500.19;1820804;77;21655;-44
2022/05/18 07:52:28;;;;;;;8.78;3.35;;;;;;;9.38;71.22;99501.76;1812865;78;20973;-44
2022/05/18 07:54:55;;;;;;;6.15;3.58;;;;;;;9.37;71.06;99502.89;1818453;78;21072;-43
2022/05/18 07:57:22;;;;;;;8.78;4.00;;;;;;;9.33;71.21;99504.72;1821719;78;21628;-43
2022/05/18 07:59:59;;;;;;;10.03;4.45;;;;;;;9.31;71.76;99507.77;1813533;78;21510;-44
2022/05/18 08:02:26;;;;;;;12.75;4.55;;;;;;;9.28;71.78;99505.77;1795620;78;20996;-43
2022/05/18 08:04:53;;;;;;;9.45;3.72;;;;;;;9.28;72.08;99509.82;1813369;78;21012;-43
2022/05/18 08:07:19;;;;;;;8.78;3.33;;;;;;;9.33;72.22;99511.48;1806483;78;21111;-43
2022/05/18 08:15:20;;;;;;;6.40;3.80;;;;;;;9.52;72.29;99517.80;1818275;78;20956;-43
2022/05/18 08:17:48;;;;;;;5.50;3.02;;;;;;;9.44;71.85;99517.97;1802272;78;21064;-44
2022/05/18 08:20:18;;;;;;;6.10;3.42;;;;;;;9.42;72.24;99521.58;1817280;78;20979;-43
2022/05/18 08:22:46;;;;;;;10.13;3.83;;;;;;;9.48;71.96;99525.04;1802213;78;21067;-43
2022/05/18 08:25:14;;;;;;;7.22;3.27;;;;;;;9.45;72.52;99527.07;1814838;78;21211;-43
2022/05/18 08:27:44;;;;;;;6.08;2.70;;;;;;;9.38;72.54;99530.96;1816241;78;20989;-43
2022/05/18 08:30:15;;;;;;;5.72;2.47;;;;;;;9.33;72.84;99530.42;1822940;78;20989;-44
2022/05/18 08:32:45;;;;;;;6.20;2.85;;;;;;;9.31;72.89;99535.38;1821824;78;21023;-44
2022/05/18 08:35:14;;;;;;;6.53;3.00;;;;;;;9.33;72.76;99538.54;1823805;78;21016;-44
2022/05/18 08:37:46;;;;;;;9.33;3.65;;;;;;;9.31;72.79;99532.67;1801225;78;21236;-43
2022/05/18 08:40:27;;;;;;;6.12;2.55;;;;;;;9.28;73.10;99544.20;1802273;78;21020;-43
2022/05/18 08:42:56;;;;;;;8.58;3.12;;;;;;;9.23;72.75;99533.06;1807573;78;21478;-43
2022/05/18 08:45:25;;;;;;;7.65;2.87;;;;;;;9.22;73.55;99534.19;1792496;78;21027;-43
2022/05/18 08:48:09;;;;;;;4.45;2.60;;;;;;;9.25;73.72;99539.46;1792799;78;22020;-43
2022/05/18 08:50:37;;;;;;;5.03;2.75;;;;;;;9.27;73.89;99540.70;1797159;78;22095;-43
2022/05/18 08:53:28;;;;;;;4.70;2.62;;;;;;;9.25;73.82;99534.84;1812761;78;21573;-42
2022/05/18 08:56:03;;;;;;;5.62;3.33;;;;;;;9.28;73.84;99542.84;1805148;78;20980;-42
2022/05/18 08:58:42;;;;;;;7.53;3.35;;;;;;;9.34;73.95;99542.83;1817546;78;21069;-43
2022/05/18 09:01:40;;;;;;;5.33;3.00;;;;;;;9.36;74.07;99542.69;1789717;78;21061;-42
2022/05/18 09:04:21;;;;;;;5.85;3.05;;;;;;;9.32;73.76;99545.08;1807504;78;23140;-43
2022/05/18 09:07:06;;;;;;;6.40;3.22;;;;;;;9.31;73.91;99546.20;1811244;78;21034;-43
2022/05/18 09:12:41;;;;;;;7.58;3.67;;;;;;;9.31;74.16;99544.29;1801119;78;21585;-43
2022/05/18 09:15:10;;;;;;;6.30;3.30;;;;;;;9.27;74.67;99543.97;1811613;78;21050;-43
2022/05/18 09:17:46;;;;;;;9.48;3.65;;;;;;;9.33;74.61;99554.77;1793972;78;21216;-43
2022/05/18 09:20:38;;;;;;;6.65;3.90;;;;;;;9.39;74.60;99557.45;1816831;78;21003;-43
2022/05/18 09:23:59;;;;;;;6.25;3.90;;;;;;;9.38;74.61;99559.94;1812971;78;21180;-42
2022/05/18 09:26:58;;;;;;;5.08;2.90;;;;;;;9.39;74.66;99562.27;1807859;78;21530;-43
2022/05/18 09:29:40;;;;;;;5.75;3.40;;;;;;;9.40;74.35;99571.18;1813055;78;21023;-43
2022/05/18 09:32:22;;;;;;;6.97;3.62;;;;;;;9.38;74.11;99568.84;1802354;78;23154;-42
2022/05/18 09:35:30;;;;;;;7.92;3.90;;;;;;;9.35;74.46;99577.62;1801747;78;21052;-42
2022/05/18 09:38:18;;;;;;;9.93;4.20;;;;;;;9.32;74.45;99572.92;1812451;78;21025;-43
2022/05/18 09:40:47;;;;;;;7.60;3.40;;;;;;;9.28;74.52;99578.02;1810707;78;21016;-43
2022/05/18 09:43:41;;;;;;;7.28;3.58;;;;;;;9.22;74.60;99570.71;1793257;78;20976;-42
2022/05/18 09:46:10;;;;;;;6.95;3.47;;;;;;;9.28;74.43;99584.78;1818369;78;21129;-43
2022/05/18 09:48:43;;;;;;;5.10;2.83;;;;;;;9.26;74.35;99589.17;1818410;78;21017;-43
2022/05/18 09:51:10;;;;;;;5.72;3.60;;;;;;;9.28;74.84;99578.02;1815961;78;21019;-43
2022/05/18 09:53:37;;;;;;;6.33;3.37;;;;;;;9.29;74.73;99595.83;1767238;78;21602;-42
2022/05/18 09:56:09;;;;;;;8.10;3.85;;;;;;;9.27;74.76;99598.08;1806457;78;21027;-43
2022/05/18 09:58:39;;;;;;;6.08;3.42;;;;;;;9.26;75.15;99600.55;1805997;78;21125;-43
2022/05/18 10:09:48;;;;;;;9.48;4.80;;;;;;;9.34;74.92;99607.76;1822142;78;21306;-42
2022/05/18 10:12:31;;;;;;;7.28;4.40;;;;;;;9.41;74.79;99606.58;1793834;78;21120;-43
2022/05/18 10:15:03;;;;;;;7.10;4.17;;;;;;;9.49;74.55;99609.69;1803175;78;21066;-43
2022/05/18 10:17:36;;;;;;;9.40;4.58;;;;;;;9.56;74.31;99609.90;1808713;78;20924;-42
2022/05/18 10:20:11;;;;;;;7.12;4.30;;;;;;;9.64;73.81;99614.36;1812819;78;20981;-43
2022/05/18 10:22:41;;;;;;;9.83;4.80;;;;;;;9.76;73.81;99614.87;1798992;78;21474;-43
2022/05/18 10:25:15;;;;;;;6.60;4.12;;;;;;;9.89;73.51;99622.56;1802270;78;21804;-43
2022/05/18 10:27:44;;;;;;;9.38;4.95;;;;;;;10.02;73.11;99625.41;1798080;78;21554;-43
2022/05/18 10:30:18;;;;;;;8.18;4.70;;;;;;;10.09;72.75;99626.16;1818534;78;21005;-43
2022/05/18 10:33:08;;;;;;;6.65;4.53;;;;;;;10.16;72.80;99619.61;1817822;78;20977;-43
2022/05/18 10:35:49;;;;;;;11.12;4.92;;;;;;;10.28;72.75;99624.13;1789031;78;21044;-42
2022/05/18 10:38:31;;;;;;;8.15;5.08;;;;;;;10.45;72.73;99627.28;1807048;78;21209;-43
2022/05/18 10:41:12;;;;;;;11.45;5.72;;;;;;;10.58;71.82;99630.66;1792598;78;21683;-43
2022/05/18 10:43:56;;;;;;;6.95;3.77;;;;;;;10.66;72.21;99629.68;1805747;78;20996;-43
2022/05/18 10:46:39;;;;;;;4.33;3.30;;;;;;;10.78;72.42;99636.92;1795932;78;21039;-43
2022/05/18 10:49:29;;;;;;;6.08;4.12;;;;;;;10.93;72.41;99655.66;1823882;78;21024;-43
2022/05/18 10:52:12;;;;;;;5.40;2.98;;;;;;;11.04;72.19;99652.58;1822205;78;21130;-43
2022/05/18 10:54:39;;;;;;;3.90;3.10;;;;;;;11.18;72.21;99648.25;1822992;78;20992;-43
2022/05/18 10:57:13;;;;;;;4.85;3.00;;;;;;;11.41;72.26;99651.06;1814190;78;21643;-43
2022/05/18 10:59:51;;;;;;;4.08;2.75;;;;;;;11.66;71.29;99649.63;1802294;78;21564;-43
2022/05/18 11:02:49;;;;;;;3.45;2.50;;;;;;;11.81;68.21;99652.63;1805753;78;21135;-43
2022/05/18 11:05:27;;;;;;;5.05;2.95;;;;;;;11.72;68.38;99652.80;1815040;78;21229;-42
2022/05/18 11:07:54;;;;;;;9.23;3.47;;;;;;;11.54;67.97;99653.05;1805469;78;20967;-42
2022/05/18 11:10:20;;;;;;;4.87;3.25;;;;;;;11.38;68.22;99661.25;1814477;78;21191;-42
2022/05/18 11:13:05;;;;;;;6.03;2.77;;;;;;;11.26;68.29;99662.77;1801102;78;21134;-42
2022/05/18 11:15:43;;;;;;;4.00;3.15;;;;;;;11.20;68.27;99656.83;1808483;78;21011;-42
2022/05/18 11:18:50;;;;;;;5.08;3.25;;;;;;;11.10;68.06;99662.81;1814327;78;21150;-43
2022/05/18 11:21:43;;;;;;;10.18;3.83;;;;;;;10.91;68.42;99661.42;1802003;78;21119;-42
2022/05/18 11:24:41;;;;;;;7.67;3.55;;;;;;;10.70;68.83;99665.79;1822114;78;20999;-42
2022/05/18 11:27:34;;;;;;;5.87;3.55;;;;;;;10.61;69.32;99671.97;1815217;78;20937;-42
2022/05/18 11:30:15;;;;;;;6.40;3.95;;;;;;;10.60;69.62;99673.11;1792309;78;21004;-42
2022/05/18 11:33:29;;;;;;;6.90;4.42;;;;;;;10.62;69.75;99676.83;1810634;78;21175;-42
2022/05/18 11:36:20;;;;;;;7.85;5.17;;;;;;;10.65;69.48;99670.12;1812102;78;21553;-42
2022/05/18 11:39:15;;;;;;;8.63;4.20;;;;;;;10.64;69.31;99675.92;1793593;78;20985;-43
2022/05/18 11:41:56;;;;;;;5.62;4.00;;;;;;;10.69;68.85;99679.16;1818733;78;21020;-42
2022/05/18 11:45:08;;;;;;;6.35;3.85;;;;;;;10.74;69.28;99687.02;1799840;78;21070;-43
2022/05/18 11:48:04;;;;;;;6.55;3.98;;;;;;;10.82;68.89;99689.31;1798606;78;21878;-43
2022/05/18 11:50:52;;;;;;;8.18;4.87;;;;;;;10.87;68.14;99684.41;1799652;78;21063;-43
2022/05/18 11:53:36;;;;;;;5.05;3.72;;;;;;;10.93;67.99;99690.36;1802081;78;21056;-43
2022/05/18 11:56:45;;;;;;;6.72;3.77;;;;;;;11.05;67.36;99701.08;1802258;78;21641;-43
2022/05/18 12:02:17;;;;;;;8.98;4.33;;;;;;;11.14;66.81;99693.52;1822940;78;21136;-43
2022/05/18 12:05:28;;;;;;;10.85;5.33;;;;;;;11.17;67.23;99706.97;1814453;78;20991;-42
2022/05/18 12:08:45;;;;;;;4.15;3.00;;;;;;;11.20;67.16;99702.17;1806251;78;21043;-42
2022/05/18 12:11:47;;;;;;;6.15;3.42;;;;;;;11.20;66.40;99715.74;1811555;78;20964;-43
2022/05/18 12:14:20;;;;;;;8.73;3.75;;;;;;;11.21;66.41;99719.47;1801010;78;21060;-43
2022/05/18 12:17:00;;;;;;;7.00;3.45;;;;;;;11.15;66.40;99709.23;1799768;78;21524;-43
2022/05/18 12:20:00;;;;;;;6.20;3.72;;;;;;;11.17;67.05;99711.04;1797462;78;20884;-44
2022/05/18 12:22:38;;;;;;;5.03;3.10;;;;;;;11.18;66.56;99720.76;1760591;78;21285;-43
2022/05/18 12:25:07;;;;;;;6.03;3.10;;;;;;;11.19;66.36;99731.80;1821516;78;21503;-43
2022/05/18 12:27:34;;;;;;;5.50;2.83;;;;;;;11.19;66.46;99727.73;1821259;78;21067;-43
2022/05/18 12:30:05;;;;;;;3.67;2.70;;;;;;;11.16;65.79;99738.73;1812633;78;21252;-43
2022/05/18 12:32:32;;;;;;;6.40;2.87;;;;;;;11.13;66.01;99742.73;1822330;78;21563;-43
2022/05/18 12:35:08;;;;;;;5.05;3.00;;;;;;;11.04;65.63;99750.26;1812860;78;20964;-42